Time;durP1;ratioP1;P1;durP2;ratioP2;P2;SDS_P1;SDS_P2;PMS_P1;PMS_P2;Temp;Humidity;BMP_temperature;BMP_pressure;BME280_temperature;BME280_humidity;BME280_pressure;Samples;Min_cycle;Max_cycle;Signal;HPM_P1;HPM_P2
2022/10/13 00:00:11;;;;;;;;;;;;;;;10.86;100.00;97046.97;5096560;28;19956;-73
2022/10/13 00:02:37;;;;;;;;;;;;;;;10.89;100.00;97041.28;5096236;28;19963;-73
2022/10/13 00:05:03;;;;;;;;;;;;;;;10.92;100.00;97047.97;5096061;28;19960;-74
2022/10/13 00:07:29;;;;;;;;;;;;;;;10.94;100.00;97045.91;5096434;28;19955;-73
2022/10/13 00:09:55;;;;;;;;;;;;;;;10.93;100.00;97050.38;5095750;28;19952;-74
2022/10/13 00:12:21;;;;;;;;;;;;;;;10.94;100.00;97044.13;5096556;28;19950;-73
2022/10/13 00:14:47;;;;;;;;;;;;;;;10.97;100.00;97048.16;5095870;28;19950;-74
2022/10/13 00:17:13;;;;;;;;;;;;;;;10.99;100.00;97043.50;5095972;28;19955;-73
2022/10/13 00:19:38;;;;;;;;;;;;;;;11.00;100.00;97031.19;5095512;28;19990;-74
2022/10/13 00:22:04;;;;;;;;;;;;;;;10.99;100.00;97033.00;5095980;28;19956;-74
2022/10/13 00:24:30;;;;;;;;;;;;;;;11.00;100.00;97029.34;5096122;28;19950;-74
2022/10/13 00:26:56;;;;;;;;;;;;;;;11.01;100.00;97028.38;5095968;28;19986;-74
2022/10/13 00:29:22;;;;;;;;;;;;;;;11.02;100.00;97026.53;5095700;28;19960;-74
2022/10/13 00:31:48;;;;;;;;;;;;;;;11.02;100.00;97035.22;5095645;28;20345;-74
2022/10/13 00:34:13;;;;;;;;;;;;;;;11.03;100.00;97030.78;5095420;28;19998;-74
2022/10/13 00:36:39;;;;;;;;;;;;;;;11.00;100.00;97029.34;5095605;28;20008;-74
2022/10/13 00:39:05;;;;;;;;;;;;;;;11.00;100.00;97031.19;5096019;28;19971;-74
2022/10/13 00:41:31;;;;;;;;;;;;;;;10.99;100.00;97032.22;5095567;28;20007;-74
2022/10/13 00:44:04;;;;;;;;;;;;;;;10.97;100.00;97030.59;5095664;28;20022;-74
2022/10/13 00:46:31;;;;;;;;;;;;;;;10.96;100.00;97026.38;5095531;28;19965;-74
2022/10/13 00:49:10;;;;;;;;;;;;;;;10.97;100.00;97033.22;5095272;28;19955;-74
2022/10/13 00:51:42;;;;;;;;;;;;;;;11.00;100.00;97031.19;5080006;28;19958;-74
2022/10/13 00:54:10;;;;;;;;;;;;;;;11.02;100.00;97026.53;5095152;28;19977;-74
2022/10/13 00:56:37;;;;;;;;;;;;;;;11.03;100.00;97031.59;5095299;28;19961;-74
2022/10/13 00:59:07;;;;;;;;;;;;;;;11.03;100.00;97031.59;5095201;28;19957;-74
2022/10/13 01:01:34;;;;;;;;;;;;;;;11.04;100.00;97027.13;5095175;28;19967;-74
2022/10/13 01:04:00;;;;;;;;;;;;;;;11.06;100.00;97030.34;5095035;28;19968;-74
2022/10/13 01:06:26;;;;;;;;;;;;;;;11.06;100.00;97031.16;5095477;28;19976;-74
2022/10/13 01:08:53;;;;;;;;;;;;;;;11.07;100.00;97030.16;5095023;28;20423;-74
2022/10/13 01:11:28;;;;;;;;;;;;;;;11.09;100.00;97022.88;5095110;28;19959;-74
2022/10/13 01:14:13;;;;;;;;;;;;;;;11.11;100.00;97025.31;5095059;28;19961;-74
2022/10/13 01:16:50;;;;;;;;;;;;;;;11.13;100.00;97023.28;5086038;28;19951;-74
2022/10/13 01:19:35;;;;;;;;;;;;;;;11.15;100.00;97016.00;5095049;28;19985;-73
2022/10/13 01:22:16;;;;;;;;;;;;;;;11.16;100.00;97026.28;5083347;28;20332;-74
2022/10/13 01:24:45;;;;;;;;;;;;;;;11.17;100.00;97020.03;5095225;28;19950;-74
2022/10/13 01:27:20;;;;;;;;;;;;;;;11.18;100.00;97015.59;5094474;28;19950;-74
2022/10/13 01:30:04;;;;;;;;;;;;;;;11.19;100.00;97014.56;5094591;28;20296;-73
2022/10/13 01:32:30;;;;;;;;;;;;;;;11.19;100.00;97014.56;5094505;28;19961;-74
2022/10/13 01:35:09;;;;;;;;;;;;;;;11.20;100.00;97007.50;5094327;28;19994;-74
2022/10/13 01:37:47;;;;;;;;;;;;;;;11.19;100.00;97001.44;5094792;28;19952;-74
2022/10/13 01:40:15;;;;;;;;;;;;;;;11.20;100.00;97003.06;5094200;28;19954;-73
2022/10/13 01:42:45;;;;;;;;;;;;;;;11.20;100.00;97003.06;5094503;28;20322;-73
2022/10/13 01:45:15;;;;;;;;;;;;;;;11.21;100.00;97001.22;5094145;28;20384;-73
2022/10/13 01:47:41;;;;;;;;;;;;;;;11.23;100.00;96997.38;5094443;28;19956;-73
2022/10/13 01:50:08;;;;;;;;;;;;;;;11.25;100.00;97000.59;5094391;28;19981;-74
2022/10/13 01:52:36;;;;;;;;;;;;;;;11.28;100.00;96997.59;5094435;28;19969;-74
2022/10/13 01:55:06;;;;;;;;;;;;;;;11.28;100.00;96994.16;5094225;28;20405;-74
2022/10/13 01:57:34;;;;;;;;;;;;;;;11.28;100.00;96989.69;5094049;28;19949;-74
2022/10/13 02:00:03;;;;;;;;;;;;;;;11.30;100.00;96997.38;5094149;28;20425;-73
2022/10/13 02:02:48;;;;;;;;;;;;;;;11.27;100.00;96995.16;5092784;28;19956;-73
2022/10/13 02:05:16;;;;;;;;;;;;;;;11.27;100.00;96990.69;5093678;28;19978;-74
2022/10/13 02:07:54;;;;;;;;;;;;;;;11.24;100.00;96991.13;5094009;28;20024;-73
2022/10/13 02:10:30;;;;;;;;;;;;;;;11.25;100.00;96991.94;5093908;28;19958;-74
2022/10/13 02:13:01;;;;;;;;;;;;;;;11.27;100.00;96993.31;5094102;28;19958;-73
2022/10/13 02:15:33;;;;;;;;;;;;;;;11.28;100.00;96984.44;5094278;28;19954;-74
2022/10/13 02:18:00;;;;;;;;;;;;;;;11.29;100.00;96988.69;5093688;28;20007;-74
2022/10/13 02:20:26;;;;;;;;;;;;;;;11.29;100.00;96988.69;5093951;28;19963;-73
2022/10/13 02:22:59;;;;;;;;;;;;;;;11.28;100.00;96984.44;5093685;28;19965;-73
2022/10/13 02:25:26;;;;;;;;;;;;;;;11.28;100.00;96987.06;5093595;28;19970;-73
2022/10/13 02:27:52;;;;;;;;;;;;;;;11.32;100.00;96992.72;5094030;28;19970;-73
2022/10/13 02:30:19;;;;;;;;;;;;;;;11.34;100.00;96991.50;5093734;28;20404;-73
2022/10/13 02:32:45;;;;;;;;;;;;;;;11.36;100.00;96994.72;5093650;28;20390;-74
2022/10/13 02:35:11;;;;;;;;;;;;;;;11.38;100.00;96994.50;5093836;28;20001;-73
2022/10/13 02:37:37;;;;;;;;;;;;;;;11.39;100.00;96996.13;5093957;28;20356;-73
2022/10/13 02:40:03;;;;;;;;;;;;;;;11.41;100.00;96994.09;5093550;28;19960;-74
2022/10/13 02:42:29;;;;;;;;;;;;;;;11.42;100.00;96998.31;5093706;28;19967;-73
2022/10/13 02:44:55;;;;;;;;;;;;;;;11.44;100.00;96998.09;5093574;28;19958;-73
2022/10/13 02:47:21;;;;;;;;;;;;;;;11.44;100.00;96990.22;5093519;28;20004;-73
2022/10/13 02:49:46;;;;;;;;;;;;;;;11.45;100.00;96991.84;5093397;28;19999;-74
2022/10/13 02:52:12;;;;;;;;;;;;;;;11.46;100.00;96989.00;5093935;28;20016;-74
2022/10/13 02:54:38;;;;;;;;;;;;;;;11.48;100.00;96997.47;5093368;28;20010;-73
2022/10/13 02:57:04;;;;;;;;;;;;;;;11.49;100.00;96996.47;5093646;28;20003;-73
2022/10/13 02:59:30;;;;;;;;;;;;;;;11.47;100.00;96987.19;5093519;28;20003;-73
2022/10/13 03:01:56;;;;;;;;;;;;;;;11.47;100.00;96989.81;5093436;28;19970;-73
2022/10/13 03:04:22;;;;;;;;;;;;;;;11.46;100.00;96991.63;5092657;28;20054;-74
2022/10/13 03:06:47;;;;;;;;;;;;;;;11.44;100.00;96987.59;5092583;28;19975;-74
2022/10/13 03:09:13;;;;;;;;;;;;;;;11.43;100.00;96988.63;5093412;28;20470;-74
2022/10/13 03:11:39;;;;;;;;;;;;;;;11.38;100.00;96986.59;5093359;28;19982;-74
2022/10/13 03:14:05;;;;;;;;;;;;;;;11.34;100.00;96981.00;5093574;28;19995;-73
2022/10/13 03:16:31;;;;;;;;;;;;;;;11.33;100.00;96984.63;5093317;28;19962;-73
2022/10/13 03:18:57;;;;;;;;;;;;;;;11.31;100.00;96980.59;5096124;28;19993;-74
2022/10/13 03:21:23;;;;;;;;;;;;;;;11.28;100.00;96970.53;5097129;28;20355;-74
2022/10/13 03:23:49;;;;;;;;;;;;;;;11.25;100.00;96976.19;5097115;28;20341;-74
2022/10/13 03:26:15;;;;;;;;;;;;;;;11.23;100.00;96979.00;5097018;28;20032;-74
2022/10/13 03:28:41;;;;;;;;;;;;;;;11.22;100.00;96971.34;5096958;28;19955;-74
2022/10/13 03:31:07;;;;;;;;;;;;;;;11.20;100.00;96962.88;5096051;28;20182;-74
2022/10/13 03:33:33;;;;;;;;;;;;;;;11.16;100.00;96960.66;5097066;28;20329;-74
2022/10/13 03:36:00;;;;;;;;;;;;;;;11.12;100.00;96959.47;5096988;28;19952;-74
2022/10/13 03:38:27;;;;;;;;;;;;;;;11.12;100.00;96956.84;5096701;28;19963;-74
2022/10/13 03:40:53;;;;;;;;;;;;;;;11.11;100.00;96946.56;5096474;28;19964;-74
2022/10/13 03:43:19;;;;;;;;;;;;;;;11.12;100.00;96956.84;5096692;28;19953;-74
2022/10/13 03:45:53;;;;;;;;;;;;;;;11.11;100.00;96962.31;5096640;28;20061;-74
2022/10/13 03:48:19;;;;;;;;;;;;;;;11.11;100.00;96967.56;5096409;28;20316;-74
2022/10/13 03:50:45;;;;;;;;;;;;;;;11.11;100.00;96968.38;5096854;28;19962;-74
2022/10/13 03:53:11;;;;;;;;;;;;;;;11.10;100.00;96965.94;5096596;28;19990;-74
2022/10/13 03:55:37;;;;;;;;;;;;;;;11.09;100.00;96974.84;5096429;28;19963;-74
2022/10/13 03:58:03;;;;;;;;;;;;;;;11.09;100.00;96974.84;5096603;28;20035;-74
2022/10/13 04:00:28;;;;;;;;;;;;;;;11.09;100.00;96975.66;5096238;28;20002;-74
2022/10/13 04:02:54;;;;;;;;;;;;;;;11.09;100.00;96969.59;5096060;28;19963;-74
2022/10/13 04:05:20;;;;;;;;;;;;;;;11.03;100.00;96965.97;5096542;28;19991;-74
2022/10/13 04:07:46;;;;;;;;;;;;;;;11.04;100.00;96972.81;5096409;28;19959;-74
2022/10/13 04:10:12;;;;;;;;;;;;;;;11.03;100.00;96970.41;5096609;28;20041;-73
2022/10/13 04:12:38;;;;;;;;;;;;;;;10.99;100.00;96956.91;5096011;28;19961;-74
2022/10/13 04:15:04;;;;;;;;;;;;;;;10.93;100.00;96960.34;5096175;28;20322;-73
2022/10/13 04:17:30;;;;;;;;;;;;;;;10.89;100.00;96959.94;5095561;28;19976;-73
2022/10/13 04:19:56;;;;;;;;;;;;;;;10.86;100.00;96962.19;5096635;28;20413;-74
2022/10/13 04:22:21;;;;;;;;;;;;;;;10.86;100.00;96970.06;5096219;28;19995;-74
2022/10/13 04:24:47;;;;;;;;;;;;;;;10.85;100.00;96969.25;5095895;28;20413;-74
2022/10/13 04:27:15;;;;;;;;;;;;;;;10.85;100.00;96978.94;5095846;28;19970;-74
2022/10/13 04:29:41;;;;;;;;;;;;;;;10.83;100.00;96978.34;5095418;28;19968;-74
2022/10/13 04:32:07;;;;;;;;;;;;;;;10.80;100.00;96976.94;5095638;28;20421;-74
2022/10/13 04:34:33;;;;;;;;;;;;;;;10.81;100.00;96977.75;5095849;28;19958;-74
2022/10/13 04:36:59;;;;;;;;;;;;;;;10.77;100.00;96972.91;5094555;28;19987;-74
2022/10/13 04:39:24;;;;;;;;;;;;;;;10.80;100.00;96981.41;5095882;28;19956;-74
2022/10/13 04:41:50;;;;;;;;;;;;;;;10.80;100.00;96976.16;5095389;28;19958;-74
2022/10/13 04:44:16;;;;;;;;;;;;;;;10.79;100.00;96972.69;5095484;28;19953;-74
2022/10/13 04:46:42;;;;;;;;;;;;;;;10.77;100.00;96975.53;5095356;28;20049;-74
2022/10/13 04:49:08;;;;;;;;;;;;;;;10.76;100.00;96966.03;5094979;28;20055;-74
2022/10/13 04:51:34;;;;;;;;;;;;;;;10.74;100.00;96970.69;5095405;28;20065;-74
2022/10/13 04:54:00;;;;;;;;;;;;;;;10.73;100.00;96965.63;5095260;28;20405;-73
2022/10/13 04:56:26;;;;;;;;;;;;;;;10.74;100.00;96962.81;5095328;28;19957;-73
2022/10/13 04:58:52;;;;;;;;;;;;;;;10.73;100.00;96955.97;5095042;28;20315;-73
2022/10/13 05:01:20;;;;;;;;;;;;;;;10.69;100.00;96953.97;5095075;28;19960;-73
2022/10/13 05:03:49;;;;;;;;;;;;;;;10.66;100.00;96955.16;5095246;28;19953;-73
2022/10/13 05:06:19;;;;;;;;;;;;;;;10.64;100.00;96954.56;5095135;28;19965;-74
2022/10/13 05:08:45;;;;;;;;;;;;;;;10.68;100.00;96962.84;5095255;28;19950;-74
2022/10/13 05:11:11;;;;;;;;;;;;;;;10.72;100.00;96975.34;5095026;28;19959;-74
2022/10/13 05:13:37;;;;;;;;;;;;;;;10.77;100.00;96972.09;5094828;28;19998;-74
2022/10/13 05:16:10;;;;;;;;;;;;;;;10.81;100.00;96969.88;5095719;28;20358;-74
2022/10/13 05:18:36;;;;;;;;;;;;;;;10.84;100.00;96964.22;5093497;28;19981;-74
2022/10/13 05:21:06;;;;;;;;;;;;;;;10.86;100.00;96959.56;5094839;28;19959;-74
2022/10/13 05:23:32;;;;;;;;;;;;;;;10.87;100.00;96953.31;5094784;28;19964;-74
2022/10/13 05:26:04;;;;;;;;;;;;;;;10.88;100.00;96950.47;5094790;28;19978;-74
2022/10/13 05:28:30;;;;;;;;;;;;;;;10.85;100.00;96953.50;5094788;28;20326;-74
2022/10/13 05:30:57;;;;;;;;;;;;;;;10.81;100.00;96954.94;5094631;28;19956;-74
2022/10/13 05:33:22;;;;;;;;;;;;;;;10.81;100.00;96962.81;5095155;28;19963;-74
2022/10/13 05:35:48;;;;;;;;;;;;;;;10.81;100.00;96957.56;5094543;28;19957;-74
2022/10/13 05:38:14;;;;;;;;;;;;;;;10.86;100.00;96960.38;5094443;28;19953;-74
2022/10/13 05:40:40;;;;;;;;;;;;;;;10.88;100.00;96957.56;5093815;28;19970;-73
2022/10/13 05:43:06;;;;;;;;;;;;;;;10.89;100.00;96954.69;5094477;28;19965;-74
2022/10/13 05:45:32;;;;;;;;;;;;;;;10.90;100.00;96966.81;5094916;28;20002;-74
2022/10/13 05:47:58;;;;;;;;;;;;;;;10.90;100.00;96958.16;5094294;28;20357;-74
2022/10/13 05:50:24;;;;;;;;;;;;;;;10.89;100.00;96951.28;5094017;28;20320;-74
2022/10/13 05:52:50;;;;;;;;;;;;;;;10.89;100.00;96948.66;5094162;28;19957;-74
2022/10/13 05:55:17;;;;;;;;;;;;;;;10.88;100.00;96945.22;5093010;28;19951;-74
2022/10/13 05:57:47;;;;;;;;;;;;;;;10.86;100.00;96947.25;5094298;28;19949;-73
2022/10/13 06:00:14;;;;;;;;;;;;;;;10.86;100.00;96949.09;5094385;28;19952;-74
2022/10/13 06:02:45;;;;;;;;;;;;;;;10.89;100.00;96948.66;5094457;28;19958;-73
2022/10/13 06:05:13;;;;;;;;;;;;;;;10.92;100.00;96933.31;5093790;28;19961;-73
2022/10/13 06:07:39;;;;;;;;;;;;;;;10.93;100.00;96928.88;5093951;28;20328;-74
2022/10/13 06:10:05;;;;;;;;;;;;;;;10.96;100.00;96936.31;5094077;28;19955;-73
2022/10/13 06:12:31;;;;;;;;;;;;;;;10.99;100.00;96929.84;5093853;28;19955;-74
2022/10/13 06:14:56;;;;;;;;;;;;;;;11.02;100.00;96934.69;5094082;28;19960;-73
2022/10/13 06:17:22;;;;;;;;;;;;;;;11.04;100.00;96932.66;5093479;28;19999;-73
2022/10/13 06:19:48;;;;;;;;;;;;;;;11.08;100.00;96939.09;5093741;28;20036;-73
2022/10/13 06:22:14;;;;;;;;;;;;;;;11.10;100.00;96937.06;5093691;28;20112;-73
2022/10/13 06:24:40;;;;;;;;;;;;;;;11.10;100.00;96937.06;5093893;28;19964;-73
2022/10/13 06:27:06;;;;;;;;;;;;;;;11.06;100.00;96934.03;5093534;28;20008;-73
2022/10/13 06:29:32;;;;;;;;;;;;;;;11.03;100.00;96942.34;5093872;28;19969;-74
2022/10/13 06:31:58;;;;;;;;;;;;;;;11.03;100.00;96938.94;5093695;28;19957;-74
2022/10/13 06:34:24;;;;;;;;;;;;;;;11.04;100.00;96943.16;5093637;28;19954;-74
2022/10/13 06:36:50;;;;;;;;;;;;;;;11.04;100.00;96935.28;5092980;28;20001;-73
2022/10/13 06:39:16;;;;;;;;;;;;;;;11.04;100.00;96943.16;5093621;28;20003;-73
2022/10/13 06:41:42;;;;;;;;;;;;;;;11.07;100.00;96940.91;5093685;28;20331;-74
2022/10/13 06:44:08;;;;;;;;;;;;;;;11.10;100.00;96937.88;5093368;28;19957;-74
2022/10/13 06:46:34;;;;;;;;;;;;;;;11.17;100.00;96927.34;5093881;28;19969;-73
2022/10/13 06:49:00;;;;;;;;;;;;;;;11.18;100.00;96928.97;5094007;28;20066;-74
2022/10/13 06:51:26;;;;;;;;;;;;;;;11.17;100.00;96924.72;5093721;28;19953;-74
2022/10/13 06:53:54;;;;;;;;;;;;;;;11.18;100.00;96931.59;5096529;28;19959;-73
2022/10/13 06:56:19;;;;;;;;;;;;;;;11.18;100.00;96939.47;5097612;28;19945;-73
2022/10/13 06:58:45;;;;;;;;;;;;;;;11.18;100.00;96936.84;5097710;28;20036;-73
2022/10/13 07:01:12;;;;;;;;;;;;;;;11.21;100.00;96932.97;5097431;28;19949;-73
2022/10/13 07:03:38;;;;;;;;;;;;;;;11.21;100.00;96925.09;5097501;28;20122;-73
2022/10/13 07:06:04;;;;;;;;;;;;;;;11.20;100.00;96929.56;5097367;28;19955;-74
2022/10/13 07:08:33;;;;;;;;;;;;;;;11.20;100.00;96934.81;5097486;28;19949;-73
2022/10/13 07:11:05;;;;;;;;;;;;;;;11.18;100.00;96926.34;5097441;28;19951;-74
2022/10/13 07:13:30;;;;;;;;;;;;;;;11.18;100.00;96939.47;5097600;28;19948;-74
2022/10/13 07:15:56;;;;;;;;;;;;;;;11.20;100.00;96932.19;5097172;28;19956;-73
2022/10/13 07:18:22;;;;;;;;;;;;;;;11.22;100.00;96938.03;5097289;28;19983;-73
2022/10/13 07:20:48;;;;;;;;;;;;;;;11.18;100.00;96932.38;5096998;28;20404;-74
2022/10/13 07:23:14;;;;;;;;;;;;;;;11.15;100.00;96948.56;5097420;28;19995;-74
2022/10/13 07:25:40;;;;;;;;;;;;;;;11.16;100.00;96949.38;5097055;28;19991;-73
2022/10/13 07:28:06;;;;;;;;;;;;;;;11.21;100.00;96946.91;5095924;28;19968;-73
2022/10/13 07:30:32;;;;;;;;;;;;;;;11.26;100.00;96941.84;5096935;28;19952;-74
2022/10/13 07:32:58;;;;;;;;;;;;;;;11.28;100.00;96936.41;5096839;28;20388;-74
2022/10/13 07:35:24;;;;;;;;;;;;;;;11.33;100.00;96931.31;5096006;28;19966;-74
2022/10/13 07:37:53;;;;;;;;;;;;;;;11.41;100.00;96938.13;5097383;28;19954;-74
2022/10/13 07:40:19;;;;;;;;;;;;;;;11.44;100.00;96933.25;5096842;28;20302;-74
2022/10/13 07:42:45;;;;;;;;;;;;;;;11.47;100.00;96937.28;5096610;28;19987;-74
2022/10/13 07:45:11;;;;;;;;;;;;;;;11.52;100.00;96929.56;5096953;28;19962;-74
2022/10/13 07:47:37;;;;;;;;;;;;;;;11.56;100.00;96933.38;5096572;28;20061;-74
2022/10/13 07:50:03;;;;;;;;;;;;;;;11.58;100.00;96921.66;5096591;28;19950;-74
2022/10/13 07:52:29;;;;;;;;;;;;;;;11.62;100.00;96931.75;5096850;28;19950;-74
2022/10/13 07:54:55;;;;;;;;;;;;;;;11.70;100.00;96932.28;5096495;28;20039;-74
2022/10/13 07:57:24;;;;;;;;;;;;;;;11.76;100.00;96925.38;5096376;28;19948;-74
2022/10/13 07:59:50;;;;;;;;;;;;;;;11.80;100.00;96918.69;5096606;28;19950;-74
2022/10/13 08:02:16;;;;;;;;;;;;;;;11.84;100.00;96919.84;5096300;28;19997;-73
2022/10/13 08:04:42;;;;;;;;;;;;;;;11.87;100.00;96911.56;5095445;28;19984;-74
2022/10/13 08:07:08;;;;;;;;;;;;;;;11.87;100.00;96914.19;5096072;28;20023;-74
2022/10/13 08:09:34;;;;;;;;;;;;;;;11.92;100.00;96916.19;5096321;28;20407;-74
2022/10/13 08:12:00;;;;;;;;;;;;;;;11.97;100.00;96919.00;5096190;28;20340;-73
2022/10/13 08:14:26;;;;;;;;;;;;;;;12.01;100.00;96907.03;5096043;28;20325;-74
2022/10/13 08:16:52;;;;;;;;;;;;;;;12.03;100.00;96904.16;5096199;28;20047;-74
2022/10/13 08:19:20;;;;;;;;;;;;;;;12.10;100.00;96911.00;5096203;28;19985;-74
2022/10/13 08:21:47;;;;;;;;;;;;;;;12.15;100.00;96905.88;5094717;28;19954;-73
2022/10/13 08:24:14;;;;;;;;;;;;;;;12.19;100.00;96906.25;5095917;28;19945;-74
2022/10/13 08:26:40;;;;;;;;;;;;;;;12.22;100.00;96902.38;5095762;28;20432;-74
2022/10/13 08:29:06;;;;;;;;;;;;;;;12.25;100.00;96907.22;5096028;28;19948;-74
2022/10/13 08:31:32;;;;;;;;;;;;;;;12.29;100.00;96896.03;5095764;28;19951;-74
2022/10/13 08:33:58;;;;;;;;;;;;;;;12.38;100.00;96896.56;5095667;28;20380;-74
2022/10/13 08:36:24;;;;;;;;;;;;;;;12.48;100.00;96886.34;5095630;28;19959;-74
2022/10/13 08:38:51;;;;;;;;;;;;;;;12.60;100.00;96896.94;5095683;28;19965;-73
2022/10/13 08:41:26;;;;;;;;;;;;;;;12.72;100.00;96889.91;5095897;28;19945;-74
2022/10/13 08:43:56;;;;;;;;;;;;;;;12.73;100.00;96885.47;5095592;28;20311;-74
2022/10/13 08:46:25;;;;;;;;;;;;;;;12.79;100.00;96889.84;5095390;28;19950;-74
2022/10/13 08:48:51;;;;;;;;;;;;;;;12.90;100.00;96883.03;5095748;28;19959;-73
2022/10/13 08:51:17;;;;;;;;;;;;;;;12.95;100.00;96888.44;5095489;28;19960;-74
2022/10/13 08:53:45;;;;;;;;;;;;;;;12.99;100.00;96881.69;5095401;28;19961;-74
2022/10/13 08:56:19;;;;;;;;;;;;;;;13.04;99.94;96892.38;5095457;28;20316;-74
2022/10/13 08:58:46;;;;;;;;;;;;;;;13.05;99.40;96885.28;5095394;28;19971;-73
2022/10/13 09:01:23;;;;;;;;;;;;;;;12.96;98.93;96890.06;5095184;28;19961;-74
2022/10/13 09:03:49;;;;;;;;;;;;;;;12.82;98.72;96893.88;5095202;28;19964;-72
2022/10/13 09:06:31;;;;;;;;;;;;;;;12.76;100.00;96900.81;5095544;28;19948;-73
2022/10/13 09:08:58;;;;;;;;;;;;;;;12.75;100.00;96905.28;5080435;28;19959;-74
2022/10/13 09:11:26;;;;;;;;;;;;;;;12.78;100.00;96906.66;5094933;28;20284;-73
2022/10/13 09:13:53;;;;;;;;;;;;;;;12.77;100.00;96903.22;5095092;28;20337;-73
2022/10/13 09:16:29;;;;;;;;;;;;;;;12.76;100.00;96898.97;5094935;28;19957;-73
2022/10/13 09:19:10;;;;;;;;;;;;;;;12.76;100.00;96893.72;5094900;28;19979;-72
2022/10/13 09:21:36;;;;;;;;;;;;;;;12.83;100.00;96900.72;5095421;28;19959;-73
2022/10/13 09:24:06;;;;;;;;;;;;;;;12.87;100.00;96886.09;5094889;28;19973;-73
2022/10/13 09:26:36;;;;;;;;;;;;;;;12.88;100.00;96899.03;5083274;28;20403;-74
2022/10/13 09:29:10;;;;;;;;;;;;;;;12.88;100.00;96903.50;5095319;28;19980;-73
2022/10/13 09:31:36;;;;;;;;;;;;;;;12.90;100.00;96898.84;5094648;28;19946;-72
2022/10/13 09:34:11;;;;;;;;;;;;;;;12.91;100.00;96893.31;5094404;28;20402;-73
2022/10/13 09:36:37;;;;;;;;;;;;;;;12.93;100.00;96891.28;5094122;28;19952;-74
2022/10/13 09:39:10;;;;;;;;;;;;;;;12.98;100.00;96894.06;5094484;28;19959;-73
2022/10/13 09:41:36;;;;;;;;;;;;;;;13.05;100.00;96888.72;5094909;28;20403;-73
2022/10/13 09:44:08;;;;;;;;;;;;;;;13.09;100.00;96889.88;5094521;28;19963;-73
2022/10/13 09:46:46;;;;;;;;;;;;;;;13.19;100.00;96882.25;5094386;28;19961;-73
2022/10/13 09:49:30;;;;;;;;;;;;;;;13.35;100.00;96882.66;5094570;28;19957;-73
2022/10/13 09:52:01;;;;;;;;;;;;;;;13.53;98.79;96879.97;5094230;28;19952;-73
2022/10/13 09:54:36;;;;;;;;;;;;;;;13.63;98.52;96873.34;5094153;28;20428;-72
2022/10/13 09:57:06;;;;;;;;;;;;;;;13.75;98.51;96882.91;5094302;28;20432;-72
2022/10/13 09:59:34;;;;;;;;;;;;;;;13.86;96.44;96872.56;5094072;28;19952;-73
2022/10/13 10:02:02;;;;;;;;;;;;;;;13.91;95.34;96870.84;5094131;28;19965;-72
2022/10/13 10:04:33;;;;;;;;;;;;;;;13.88;95.55;96866.06;5078291;28;19944;-73
2022/10/13 10:07:04;;;;;;;;;;;;;;;13.81;94.01;96868.78;5094088;28;20498;-72
2022/10/13 10:09:37;;;;;;;;;;;;;;;13.81;97.09;96886.44;5093989;28;20327;-73
2022/10/13 10:12:03;;;;;;;;;;;;;;;13.80;96.11;96880.38;5094051;28;20410;-73
2022/10/13 10:14:31;;;;;;;;;;;;;;;13.79;97.19;96873.47;5094176;28;19966;-74
2022/10/13 10:16:57;;;;;;;;;;;;;;;13.82;96.27;96880.16;5094072;28;19958;-74
2022/10/13 10:19:31;;;;;;;;;;;;;;;13.78;95.79;96871.88;5093562;28;19977;-74
2022/10/13 10:22:21;;;;;;;;;;;;;;;13.83;96.57;96873.03;5093988;28;19972;-74
2022/10/13 10:25:04;;;;;;;;;;;;;;;13.89;97.10;96877.41;5072512;28;19962;-74
2022/10/13 10:27:44;;;;;;;;;;;;;;;13.90;94.71;96863.16;5092431;28;19967;-74
2022/10/13 10:30:19;;;;;;;;;;;;;;;13.92;95.94;96876.94;5093733;28;19957;-74
2022/10/13 10:32:57;;;;;;;;;;;;;;;13.98;96.93;96874.22;5093781;28;19956;-74
2022/10/13 10:35:32;;;;;;;;;;;;;;;14.08;97.24;96872.81;5079794;28;20327;-75
2022/10/13 10:38:07;;;;;;;;;;;;;;;14.15;97.79;96869.03;5093277;28;19975;-74
2022/10/13 10:40:39;;;;;;;;;;;;;;;14.21;95.96;96854.94;5079767;28;19977;-74
2022/10/13 10:43:15;;;;;;;;;;;;;;;14.29;96.73;96859.03;5093461;28;20945;-75
2022/10/13 10:45:41;;;;;;;;;;;;;;;14.36;96.49;96851.00;5093997;28;19957;-74
2022/10/13 10:48:16;;;;;;;;;;;;;;;14.39;94.83;96843.44;5093604;28;19972;-74
2022/10/13 10:50:43;;;;;;;;;;;;;;;14.44;94.28;96842.72;5093553;28;19960;-74
2022/10/13 10:53:18;;;;;;;;;;;;;;;14.47;93.73;96830.91;5093527;28;19964;-74
2022/10/13 10:56:03;;;;;;;;;;;;;;;14.48;93.91;96832.50;5093428;28;19973;-75
2022/10/13 10:58:39;;;;;;;;;;;;;;;14.46;93.13;96827.47;5093682;28;19955;-74
2022/10/13 11:01:13;;;;;;;;;;;;;;;14.54;93.71;96828.94;5091502;28;19962;-74
2022/10/13 11:03:45;;;;;;;;;;;;;;;14.56;93.01;96824.28;5093465;28;20409;-74
2022/10/13 11:06:11;;;;;;;;;;;;;;;14.59;94.65;96824.63;5093088;28;19954;-74
2022/10/13 11:08:37;;;;;;;;;;;;;;;14.67;95.35;96818.16;5093153;28;19965;-75
2022/10/13 11:11:21;;;;;;;;;;;;;;;14.75;94.31;96812.50;5093299;28;19989;-74
2022/10/13 11:13:51;;;;;;;;;;;;;;;14.84;92.68;96801.56;5093426;28;19947;-74
2022/10/13 11:16:32;;;;;;;;;;;;;;;14.88;92.34;96802.69;5093183;28;19960;-74
2022/10/13 11:19:06;;;;;;;;;;;;;;;14.90;89.88;96788.22;5093484;28;19983;-74
2022/10/13 11:21:51;;;;;;;;;;;;;;;14.94;92.11;96801.75;5082045;28;19947;-74
2022/10/13 11:24:46;;;;;;;;;;;;;;;15.00;91.03;96798.97;5093174;28;20394;-74
2022/10/13 11:27:14;;;;;;;;;;;;;;;15.13;90.01;96789.13;5079697;28;19968;-74
2022/10/13 11:29:47;;;;;;;;;;;;;;;15.25;92.21;96802.28;5093373;28;20435;-74
2022/10/13 11:35:03;;;;;;;;;;;;;;;15.33;88.90;96780.72;5093089;28;19955;-74
2022/10/13 11:37:50;;;;;;;;;;;;;;;15.35;89.27;96782.13;5093160;28;19959;-74
2022/10/13 11:40:35;;;;;;;;;;;;;;;15.39;89.15;96775.31;5082855;28;19945;-75
2022/10/13 11:43:01;;;;;;;;;;;;;;;15.41;89.06;96773.22;5096685;28;19955;-75
2022/10/13 11:45:39;;;;;;;;;;;;;;;15.40;88.84;96770.81;5096139;28;19966;-74
2022/10/13 11:48:11;;;;;;;;;;;;;;;15.46;90.12;96777.00;5096855;28;19972;-74
2022/10/13 11:50:55;;;;;;;;;;;;;;;15.49;90.00;96768.56;5096130;28;19961;-74
2022/10/13 11:53:23;;;;;;;;;;;;;;;15.53;89.19;96762.56;5095354;28;19948;-74
2022/10/13 11:55:51;;;;;;;;;;;;;;;15.63;88.29;96754.00;5096540;28;19961;-74
2022/10/13 11:58:21;;;;;;;;;;;;;;;15.71;87.00;96744.84;5096566;28;19953;-75
2022/10/13 12:01:10;;;;;;;;;;;;;;;15.82;88.09;96744.78;5096587;28;19953;-74
2022/10/13 12:03:43;;;;;;;;;;;;;;;15.90;87.04;96732.19;5096498;28;19945;-74
2022/10/13 12:06:15;;;;;;;;;;;;;;;15.98;85.66;96718.50;5096160;28;19954;-75
2022/10/13 12:08:44;;;;;;;;;;;;;;;15.96;84.03;96704.75;5096342;28;19971;-74
2022/10/13 12:11:21;;;;;;;;;;;;;;;15.94;83.47;96694.41;5096083;28;19951;-75
2022/10/13 12:13:47;;;;;;;;;;;;;;;15.98;83.17;96684.94;5096587;28;20024;-74
2022/10/13 12:16:13;;;;;;;;;;;;;;;16.02;82.37;96678.13;5096178;28;20058;-75
2022/10/13 12:18:40;;;;;;;;;;;;;;;15.94;81.79;96669.81;5096042;28;19995;-74
2022/10/13 12:21:10;;;;;;;;;;;;;;;15.93;87.17;96695.44;5096339;28;20329;-74
2022/10/13 12:23:36;;;;;;;;;;;;;;;15.93;83.83;96681.44;5095996;28;20328;-74
2022/10/13 12:26:02;;;;;;;;;;;;;;;15.95;84.85;96688.06;5096072;28;19955;-74
2022/10/13 12:28:41;;;;;;;;;;;;;;;15.98;82.65;96673.53;5095940;28;19970;-74
2022/10/13 12:31:15;;;;;;;;;;;;;;;16.03;82.95;96676.25;5095848;28;20395;-75
2022/10/13 12:33:41;;;;;;;;;;;;;;;16.06;84.08;96681.06;5095948;28;19960;-75
2022/10/13 12:36:16;;;;;;;;;;;;;;;16.07;83.68;96677.38;5096082;28;20015;-74
2022/10/13 12:38:46;;;;;;;;;;;;;;;16.14;84.26;96685.91;5080857;28;19952;-74
2022/10/13 12:41:13;;;;;;;;;;;;;;;16.18;82.51;96678.28;5095542;28;19949;-75
2022/10/13 12:43:41;;;;;;;;;;;;;;;16.18;81.88;96659.75;5095589;28;20327;-74
2022/10/13 12:46:08;;;;;;;;;;;;;;;16.19;83.27;96670.09;5095638;28;20356;-74
2022/10/13 12:48:35;;;;;;;;;;;;;;;16.21;80.04;96646.84;5095810;28;19973;-74